sensor_id;sensor_type;location;lat;lon;timestamp;pressure;altitude;pressure_sealevel;temperature;humidity
3844;BME280;1937;51.444;6.484;2024-02-23T00:00:02;68533.97;;;4.95;98.54
3844;BME280;1937;51.444;6.484;2024-02-23T00:02:32;68567.00;;;5.04;98.43
3844;BME280;1937;51.444;6.484;2024-02-23T00:04:59;68598.81;;;5.05;98.37
3844;BME280;1937;51.444;6.484;2024-02-23T00:07:25;68575.25;;;5.05;98.41
3844;BME280;1937;51.444;6.484;2024-02-23T00:09:52;68631.34;;;4.98;99.12
3844;BME280;1937;51.444;6.484;2024-02-23T00:12:21;68615.13;;;5.08;98.20
3844;BME280;1937;51.444;6.484;2024-02-23T00:14:48;68642.66;;;5.14;98.90
3844;BME280;1937;51.444;6.484;2024-02-23T00:17:16;68685.88;;;5.38;98.01
3844;BME280;1937;51.444;6.484;2024-02-23T00:19:45;68659.53;;;5.33;97.63
3844;BME280;1937;51.444;6.484;2024-02-23T00:22:12;68602.94;;;5.30;96.75
3844;BME280;1937;51.444;6.484;2024-02-23T00:24:38;68580.69;;;5.22;96.29
3844;BME280;1937;51.444;6.484;2024-02-23T00:27:06;68578.16;;;5.22;96.10
3844;BME280;1937;51.444;6.484;2024-02-23T00:29:32;68627.13;;;5.10;96.02
3844;BME280;1937;51.444;6.484;2024-02-23T00:32:00;68605.38;;;5.39;94.85
3844;BME280;1937;51.444;6.484;2024-02-23T00:34:27;68543.38;;;5.47;94.03
3844;BME280;1937;51.444;6.484;2024-02-23T00:36:56;68538.56;;;5.30;94.38
3844;BME280;1937;51.444;6.484;2024-02-23T00:39:23;68499.38;;;5.47;92.87
3844;BME280;1937;51.444;6.484;2024-02-23T00:41:50;68402.34;;;5.47;93.15
3844;BME280;1937;51.444;6.484;2024-02-23T00:44:16;68432.44;;;5.53;92.24
3844;BME280;1937;51.444;6.484;2024-02-23T00:46:46;68411.22;;;5.54;92.90
3844;BME280;1937;51.444;6.484;2024-02-23T00:49:16;68396.22;;;5.37;91.74
3844;BME280;1937;51.444;6.484;2024-02-23T00:51:43;68344.16;;;5.27;92.55
3844;BME280;1937;51.444;6.484;2024-02-23T00:54:11;68418.22;;;5.41;92.55
3844;BME280;1937;51.444;6.484;2024-02-23T00:56:38;68402.53;;;5.45;92.71
3844;BME280;1937;51.444;6.484;2024-02-23T00:59:05;68395.53;;;5.58;91.81
3844;BME280;1937;51.444;6.484;2024-02-23T01:01:32;68337.19;;;5.61;90.44
3844;BME280;1937;51.444;6.484;2024-02-23T01:03:58;68308.31;;;5.62;89.27
3844;BME280;1937;51.444;6.484;2024-02-23T01:06:25;68258.97;;;5.51;89.35
3844;BME280;1937;51.444;6.484;2024-02-23T01:08:53;68174.53;;;5.53;89.14
3844;BME280;1937;51.444;6.484;2024-02-23T01:11:21;68219.09;;;5.54;88.45
3844;BME280;1937;51.444;6.484;2024-02-23T01:13:48;68190.84;;;5.56;87.74
3844;BME280;1937;51.444;6.484;2024-02-23T01:16:15;68191.81;;;5.72;87.14
3844;BME280;1937;51.444;6.484;2024-02-23T01:18:42;68156.84;;;5.57;88.15
3844;BME280;1937;51.444;6.484;2024-02-23T01:21:09;68210.28;;;5.72;87.22
3844;BME280;1937;51.444;6.484;2024-02-23T01:23:35;68144.69;;;5.58;87.20
3844;BME280;1937;51.444;6.484;2024-02-23T01:26:02;68172.38;;;5.62;87.60
3844;BME280;1937;51.444;6.484;2024-02-23T01:28:30;68128.97;;;5.55;87.25
3844;BME280;1937;51.444;6.484;2024-02-23T01:30:57;68089.28;;;5.43;87.30
3844;BME280;1937;51.444;6.484;2024-02-23T01:33:25;68105.19;;;5.44;88.01
3844;BME280;1937;51.444;6.484;2024-02-23T01:35:51;68040.59;;;5.32;87.86
3844;BME280;1937;51.444;6.484;2024-02-23T01:38:18;68036.88;;;5.38;87.44
3844;BME280;1937;51.444;6.484;2024-02-23T01:40:46;68066.53;;;5.41;87.47
3844;BME280;1937;51.444;6.484;2024-02-23T01:43:13;68115.22;;;5.32;87.23
3844;BME280;1937;51.444;6.484;2024-02-23T01:45:41;68036.09;;;5.32;87.10
3844;BME280;1937;51.444;6.484;2024-02-23T01:48:08;68069.06;;;5.48;87.41
3844;BME280;1937;51.444;6.484;2024-02-23T01:50:35;68063.16;;;5.56;87.02
3844;BME280;1937;51.444;6.484;2024-02-23T01:53:03;68107.53;;;5.72;86.37
3844;BME280;1937;51.444;6.484;2024-02-23T01:55:29;68070.38;;;5.80;85.45
3844;BME280;1937;51.444;6.484;2024-02-23T01:57:57;68092.59;;;5.94;85.46
3844;BME280;1937;51.444;6.484;2024-02-23T02:00:24;68217.78;;;6.07;84.72
3844;BME280;1937;51.444;6.484;2024-02-23T02:02:53;68041.50;;;5.81;85.31
3844;BME280;1937;51.444;6.484;2024-02-23T02:05:19;67988.88;;;5.71;85.26
3844;BME280;1937;51.444;6.484;2024-02-23T02:07:47;68054.09;;;5.76;85.43
3844;BME280;1937;51.444;6.484;2024-02-23T02:10:17;68093.19;;;5.82;85.18
3844;BME280;1937;51.444;6.484;2024-02-23T02:12:43;67992.38;;;5.81;85.47
3844;BME280;1937;51.444;6.484;2024-02-23T02:15:10;67978.88;;;5.69;85.73
3844;BME280;1937;51.444;6.484;2024-02-23T02:17:37;67958.84;;;5.65;85.56
3844;BME280;1937;51.444;6.484;2024-02-23T02:20:11;67927.06;;;5.51;85.98
3844;BME280;1937;51.444;6.484;2024-02-23T02:22:38;67960.47;;;5.42;86.04
3844;BME280;1937;51.444;6.484;2024-02-23T02:25:06;67956.19;;;5.34;86.67
3844;BME280;1937;51.444;6.484;2024-02-23T02:27:33;67944.63;;;5.28;86.78
3844;BME280;1937;51.444;6.484;2024-02-23T02:29:59;67929.69;;;5.24;87.11
3844;BME280;1937;51.444;6.484;2024-02-23T02:32:26;67994.91;;;5.17;86.83
3844;BME280;1937;51.444;6.484;2024-02-23T02:34:53;68065.53;;;5.31;86.28
3844;BME280;1937;51.444;6.484;2024-02-23T02:37:21;67915.56;;;5.25;86.46
3844;BME280;1937;51.444;6.484;2024-02-23T02:39:48;67901.06;;;5.17;86.66
3844;BME280;1937;51.444;6.484;2024-02-23T02:42:18;67937.38;;;5.18;87.19
3844;BME280;1937;51.444;6.484;2024-02-23T02:44:44;67870.03;;;5.28;86.57
3844;BME280;1937;51.444;6.484;2024-02-23T02:47:11;67906.56;;;5.13;86.68
3844;BME280;1937;51.444;6.484;2024-02-23T02:49:39;67873.41;;;5.13;86.43
3844;BME280;1937;51.444;6.484;2024-02-23T02:52:06;67853.41;;;5.09;86.26
3844;BME280;1937;51.444;6.484;2024-02-23T02:54:35;67867.16;;;5.12;86.89
3844;BME280;1937;51.444;6.484;2024-02-23T02:57:02;67863.41;;;5.11;86.57
3844;BME280;1937;51.444;6.484;2024-02-23T02:59:28;67892.44;;;5.14;86.21
3844;BME280;1937;51.444;6.484;2024-02-23T03:01:57;67917.56;;;5.18;86.00
3844;BME280;1937;51.444;6.484;2024-02-23T03:04:23;67845.94;;;5.07;86.23
3844;BME280;1937;51.444;6.484;2024-02-23T03:06:50;67854.94;;;5.13;86.10
3844;BME280;1937;51.444;6.484;2024-02-23T03:09:17;67876.38;;;5.09;86.26
3844;BME280;1937;51.444;6.484;2024-02-23T03:11:45;67845.16;;;5.09;86.05
3844;BME280;1937;51.444;6.484;2024-02-23T03:14:12;67826.75;;;4.95;86.69
3844;BME280;1937;51.444;6.484;2024-02-23T03:16:38;67834.06;;;4.86;86.49
3844;BME280;1937;51.444;6.484;2024-02-23T03:19:05;67800.66;;;5.01;86.27
3844;BME280;1937;51.444;6.484;2024-02-23T03:21:33;67862.25;;;5.04;85.94
3844;BME280;1937;51.444;6.484;2024-02-23T03:23:59;67835.16;;;5.07;86.51
3844;BME280;1937;51.444;6.484;2024-02-23T03:26:26;67862.22;;;5.17;85.89
3844;BME280;1937;51.444;6.484;2024-02-23T03:28:54;67857.13;;;5.10;86.03
3844;BME280;1937;51.444;6.484;2024-02-23T03:31:21;67863.00;;;5.15;86.02
3844;BME280;1937;51.444;6.484;2024-02-23T03:33:48;67861.22;;;5.14;85.91
3844;BME280;1937;51.444;6.484;2024-02-23T03:36:15;67838.06;;;5.22;85.10
3844;BME280;1937;51.444;6.484;2024-02-23T03:38:41;67864.19;;;5.16;85.44
3844;BME280;1937;51.444;6.484;2024-02-23T03:41:08;67871.28;;;5.03;85.58
3844;BME280;1937;51.444;6.484;2024-02-23T03:43:35;67875.03;;;4.90;85.41
3844;BME280;1937;51.444;6.484;2024-02-23T03:46:05;67728.50;;;4.89;85.63
3844;BME280;1937;51.444;6.484;2024-02-23T03:48:32;67801.84;;;4.95;85.69
3844;BME280;1937;51.444;6.484;2024-02-23T03:50:59;67778.25;;;5.08;84.96
3844;BME280;1937;51.444;6.484;2024-02-23T03:53:26;67814.28;;;5.24;84.37
3844;BME280;1937;51.444;6.484;2024-02-23T03:55:53;67821.59;;;5.15;84.71
3844;BME280;1937;51.444;6.484;2024-02-23T03:58:19;67827.88;;;5.16;84.44
3844;BME280;1937;51.444;6.484;2024-02-23T04:00:46;67780.78;;;5.08;85.02
3844;BME280;1937;51.444;6.484;2024-02-23T04:03:15;67803.47;;;5.30;84.14
3844;BME280;1937;51.444;6.484;2024-02-23T04:05:42;67784.25;;;5.24;83.79
3844;BME280;1937;51.444;6.484;2024-02-23T04:08:08;67840.34;;;5.31;84.41
3844;BME280;1937;51.444;6.484;2024-02-23T04:10:35;67906.31;;;5.42;83.38
3844;BME280;1937;51.444;6.484;2024-02-23T04:13:02;67764.31;;;5.45;83.06
3844;BME280;1937;51.444;6.484;2024-02-23T04:15:28;67788.25;;;5.48;83.69
3844;BME280;1937;51.444;6.484;2024-02-23T04:17:55;67754.28;;;5.43;83.62
3844;BME280;1937;51.444;6.484;2024-02-23T04:20:24;67826.75;;;5.46;83.34
3844;BME280;1937;51.444;6.484;2024-02-23T04:22:50;67816.72;;;5.50;83.50
3844;BME280;1937;51.444;6.484;2024-02-23T04:25:17;67793.19;;;5.43;83.53
3844;BME280;1937;51.444;6.484;2024-02-23T04:27:44;67750.38;;;5.44;82.63
3844;BME280;1937;51.444;6.484;2024-02-23T04:30:11;67803.13;;;5.58;82.79
3844;BME280;1937;51.444;6.484;2024-02-23T04:32:38;67752.56;;;5.41;82.70
3844;BME280;1937;51.444;6.484;2024-02-23T04:35:05;67792.22;;;5.40;83.33
3844;BME280;1937;51.444;6.484;2024-02-23T04:37:33;67792.56;;;5.49;83.07
3844;BME280;1937;51.444;6.484;2024-02-23T04:40:00;67767.25;;;5.47;83.55
3844;BME280;1937;51.444;6.484;2024-02-23T04:42:27;67797.16;;;5.35;83.57
3844;BME280;1937;51.444;6.484;2024-02-23T04:44:53;67741.63;;;5.29;83.34
3844;BME280;1937;51.444;6.484;2024-02-23T04:47:23;67742.16;;;5.36;83.68
3844;BME280;1937;51.444;6.484;2024-02-23T04:49:50;67776.94;;;5.33;82.93
3844;BME280;1937;51.444;6.484;2024-02-23T04:52:19;67750.66;;;5.28;83.62
3844;BME280;1937;51.444;6.484;2024-02-23T04:54:47;67797.16;;;5.35;83.30
3844;BME280;1937;51.444;6.484;2024-02-23T04:57:14;67766.72;;;5.33;83.70
3844;BME280;1937;51.444;6.484;2024-02-23T04:59:40;67757.44;;;5.43;82.81
3844;BME280;1937;51.444;6.484;2024-02-23T05:02:08;67701.75;;;5.32;83.05
3844;BME280;1937;51.444;6.484;2024-02-23T05:04:34;67733.13;;;5.38;82.90
3844;BME280;1937;51.444;6.484;2024-02-23T05:07:01;67741.00;;;5.35;83.25
3844;BME280;1937;51.444;6.484;2024-02-23T05:09:28;67758.47;;;5.33;83.60
3844;BME280;1937;51.444;6.484;2024-02-23T05:11:57;67741.00;;;5.35;83.01
3844;BME280;1937;51.444;6.484;2024-02-23T05:14:23;67696.28;;;5.30;82.99
3844;BME280;1937;51.444;6.484;2024-02-23T05:16:51;67694.28;;;5.30;82.86
3844;BME280;1937;51.444;6.484;2024-02-23T05:19:17;67747.13;;;5.25;83.21
3844;BME280;1937;51.444;6.484;2024-02-23T05:21:44;67686.13;;;5.23;82.71
3844;BME280;1937;51.444;6.484;2024-02-23T05:24:11;67700.22;;;5.29;83.13
3844;BME280;1937;51.444;6.484;2024-02-23T05:26:38;67656.84;;;4.98;82.97
3844;BME280;1937;51.444;6.484;2024-02-23T05:29:06;67698.13;;;5.18;83.15
3844;BME280;1937;51.444;6.484;2024-02-23T05:31:53;67692.09;;;5.09;83.42
3844;BME280;1937;51.444;6.484;2024-02-23T05:34:20;67672.19;;;5.22;82.68
3844;BME280;1937;51.444;6.484;2024-02-23T05:36:47;67715.19;;;5.20;82.89
3844;BME280;1937;51.444;6.484;2024-02-23T05:39:15;67661.56;;;4.95;82.71
3844;BME280;1937;51.444;6.484;2024-02-23T05:41:42;67686.63;;;5.30;82.29
3844;BME280;1937;51.444;6.484;2024-02-23T05:44:10;67632.75;;;5.21;82.72
3844;BME280;1937;51.444;6.484;2024-02-23T05:46:38;67682.72;;;5.31;82.80
3844;BME280;1937;51.444;6.484;2024-02-23T05:49:05;67675.69;;;5.25;82.62
3844;BME280;1937;51.444;6.484;2024-02-23T05:51:32;67639.97;;;5.25;82.40
3844;BME280;1937;51.444;6.484;2024-02-23T05:54:00;67653.16;;;5.21;83.37
3844;BME280;1937;51.444;6.484;2024-02-23T05:56:27;67693.81;;;5.48;82.42
3844;BME280;1937;51.444;6.484;2024-02-23T05:58:53;67759.13;;;5.58;82.08
3844;BME280;1937;51.444;6.484;2024-02-23T06:01:22;67742.63;;;5.57;81.56
3844;BME280;1937;51.444;6.484;2024-02-23T06:03:48;67775.34;;;5.67;81.62
3844;BME280;1937;51.444;6.484;2024-02-23T06:06:15;67816.25;;;5.61;81.53
3844;BME280;1937;51.444;6.484;2024-02-23T06:08:42;67756.56;;;5.89;81.32
3844;BME280;1937;51.444;6.484;2024-02-23T06:11:09;67759.69;;;5.89;80.62
3844;BME280;1937;51.444;6.484;2024-02-23T06:13:36;67684.66;;;5.86;80.69
3844;BME280;1937;51.444;6.484;2024-02-23T06:16:04;67726.50;;;5.89;80.81
3844;BME280;1937;51.444;6.484;2024-02-23T06:18:32;67697.63;;;5.84;80.22
3844;BME280;1937;51.444;6.484;2024-02-23T06:21:00;67709.56;;;5.92;79.90
3844;BME280;1937;51.444;6.484;2024-02-23T06:23:27;67708.34;;;5.98;79.53
3844;BME280;1937;51.444;6.484;2024-02-23T06:25:54;67671.50;;;5.84;79.50
3844;BME280;1937;51.444;6.484;2024-02-23T06:28:21;67734.34;;;5.94;79.43
3844;BME280;1937;51.444;6.484;2024-02-23T06:30:47;67754.84;;;5.81;79.97
3844;BME280;1937;51.444;6.484;2024-02-23T06:33:14;67666.81;;;5.80;80.19
3844;BME280;1937;51.444;6.484;2024-02-23T06:35:43;67724.75;;;6.12;79.18
3844;BME280;1937;51.444;6.484;2024-02-23T06:38:10;67679.97;;;6.06;79.08
3844;BME280;1937;51.444;6.484;2024-02-23T06:40:37;67683.91;;;6.05;78.60
3844;BME280;1937;51.444;6.484;2024-02-23T06:43:04;67689.03;;;6.05;79.15
3844;BME280;1937;51.444;6.484;2024-02-23T06:45:30;67632.72;;;5.94;78.85
3844;BME280;1937;51.444;6.484;2024-02-23T06:47:57;67696.25;;;6.09;78.83
3844;BME280;1937;51.444;6.484;2024-02-23T06:50:24;67685.59;;;6.13;79.29
3844;BME280;1937;51.444;6.484;2024-02-23T06:52:52;67695.44;;;5.93;79.41
3844;BME280;1937;51.444;6.484;2024-02-23T06:55:19;67705.19;;;6.22;78.82
3844;BME280;1937;51.444;6.484;2024-02-23T06:57:46;67663.13;;;6.21;78.10
3844;BME280;1937;51.444;6.484;2024-02-23T07:00:14;67713.03;;;6.44;77.78
3844;BME280;1937;51.444;6.484;2024-02-23T07:02:41;67755.28;;;6.49;77.49
3844;BME280;1937;51.444;6.484;2024-02-23T07:05:07;67692.94;;;6.29;78.08
3844;BME280;1937;51.444;6.484;2024-02-23T07:07:35;67659.41;;;6.37;78.27
3844;BME280;1937;51.444;6.484;2024-02-23T07:10:03;67692.00;;;6.43;77.67
3844;BME280;1937;51.444;6.484;2024-02-23T07:12:30;67705.97;;;6.44;77.50
3844;BME280;1937;51.444;6.484;2024-02-23T07:14:56;67747.59;;;6.49;77.90
3844;BME280;1937;51.444;6.484;2024-02-23T07:17:23;67719.75;;;6.65;77.47
3844;BME280;1937;51.444;6.484;2024-02-23T07:19:51;67739.75;;;6.69;76.48
3844;BME280;1937;51.444;6.484;2024-02-23T07:22:18;67723.19;;;6.75;76.39
3844;BME280;1937;51.444;6.484;2024-02-23T07:24:46;67719.09;;;6.71;75.65
3844;BME280;1937;51.444;6.484;2024-02-23T07:27:14;67691.97;;;6.85;74.95
3844;BME280;1937;51.444;6.484;2024-02-23T07:29:41;67696.94;;;6.98;74.66
3844;BME280;1937;51.444;6.484;2024-02-23T07:32:07;67698.41;;;7.09;74.42
3844;BME280;1937;51.444;6.484;2024-02-23T07:34:34;67710.78;;;6.95;73.60
3844;BME280;1937;51.444;6.484;2024-02-23T07:37:01;67697.66;;;6.86;74.55
3844;BME280;1937;51.444;6.484;2024-02-23T07:39:28;67727.59;;;7.05;74.09
3844;BME280;1937;51.444;6.484;2024-02-23T07:41:54;67694.44;;;7.10;74.75
3844;BME280;1937;51.444;6.484;2024-02-23T07:44:22;67700.03;;;7.06;74.93
3844;BME280;1937;51.444;6.484;2024-02-23T07:46:50;67679.25;;;6.96;74.57
3844;BME280;1937;51.444;6.484;2024-02-23T07:49:17;67678.28;;;7.11;73.32
3844;BME280;1937;51.444;6.484;2024-02-23T07:51:44;67684.88;;;7.04;74.35
3844;BME280;1937;51.444;6.484;2024-02-23T07:54:11;67678.88;;;7.12;73.98
3844;BME280;1937;51.444;6.484;2024-02-23T07:56:37;67713.09;;;7.32;73.86
3844;BME280;1937;51.444;6.484;2024-02-23T07:59:04;67664.00;;;7.19;73.79
3844;BME280;1937;51.444;6.484;2024-02-23T08:01:32;67706.72;;;7.03;74.71
3844;BME280;1937;51.444;6.484;2024-02-23T08:03:59;67755.28;;;6.91;75.07
3844;BME280;1937;51.444;6.484;2024-02-23T08:06:26;67730.06;;;6.76;75.86
3844;BME280;1937;51.444;6.484;2024-02-23T08:08:53;67657.91;;;6.87;75.47
3844;BME280;1937;51.444;6.484;2024-02-23T08:11:21;67629.91;;;6.74;75.56
3844;BME280;1937;51.444;6.484;2024-02-23T08:13:48;67645.91;;;6.85;75.98
3844;BME280;1937;51.444;6.484;2024-02-23T08:16:15;67638.25;;;6.85;76.18
3844;BME280;1937;51.444;6.484;2024-02-23T08:18:43;67655.28;;;6.93;75.84
3844;BME280;1937;51.444;6.484;2024-02-23T08:21:10;67724.44;;;7.22;75.40
3844;BME280;1937;51.444;6.484;2024-02-23T08:23:38;67810.25;;;7.63;73.91
3844;BME280;1937;51.444;6.484;2024-02-23T08:26:06;68019.66;;;8.42;71.95
3844;BME280;1937;51.444;6.484;2024-02-23T08:28:32;67759.63;;;8.10;70.88
3844;BME280;1937;51.444;6.484;2024-02-23T08:30:59;67802.63;;;8.10;71.13
3844;BME280;1937;51.444;6.484;2024-02-23T08:33:26;67762.44;;;7.91;72.31
3844;BME280;1937;51.444;6.484;2024-02-23T08:35:55;67705.72;;;7.70;72.66
3844;BME280;1937;51.444;6.484;2024-02-23T08:38:22;67728.34;;;7.74;72.09
3844;BME280;1937;51.444;6.484;2024-02-23T08:40:49;67699.72;;;7.61;72.83
3844;BME280;1937;51.444;6.484;2024-02-23T08:43:16;67712.09;;;7.65;73.27
3844;BME280;1937;51.444;6.484;2024-02-23T08:45:43;67725.06;;;7.69;72.24
3844;BME280;1937;51.444;6.484;2024-02-23T08:48:10;67703.19;;;7.53;73.07
3844;BME280;1937;51.444;6.484;2024-02-23T08:50:40;67740.75;;;7.90;72.34
3844;BME280;1937;51.444;6.484;2024-02-23T08:53:08;67704.94;;;7.54;73.71
3844;BME280;1937;51.444;6.484;2024-02-23T08:55:35;67627.69;;;7.69;72.05
3844;BME280;1937;51.444;6.484;2024-02-23T08:58:01;67755.09;;;7.93;71.85
3844;BME280;1937;51.444;6.484;2024-02-23T09:00:28;67772.78;;;8.13;71.92
3844;BME280;1937;51.444;6.484;2024-02-23T09:02:55;67733.69;;;8.01;71.19
3844;BME280;1937;51.444;6.484;2024-02-23T09:05:22;67738.69;;;7.97;72.73
3844;BME280;1937;51.444;6.484;2024-02-23T09:07:49;67778.47;;;8.31;70.89
3844;BME280;1937;51.444;6.484;2024-02-23T09:10:17;67798.47;;;8.42;70.78
3844;BME280;1937;51.444;6.484;2024-02-23T09:12:44;67800.81;;;8.44;71.16
3844;BME280;1937;51.444;6.484;2024-02-23T09:15:11;67860.97;;;8.27;69.95
3844;BME280;1937;51.444;6.484;2024-02-23T09:17:39;67839.31;;;8.73;70.02
3844;BME280;1937;51.444;6.484;2024-02-23T09:20:07;67859.41;;;8.77;69.76
3844;BME280;1937;51.444;6.484;2024-02-23T09:22:34;67820.31;;;8.76;69.45
3844;BME280;1937;51.444;6.484;2024-02-23T09:25:02;67742.41;;;8.44;69.48
3844;BME280;1937;51.444;6.484;2024-02-23T09:27:32;67743.66;;;8.39;70.13
3844;BME280;1937;51.444;6.484;2024-02-23T09:30:00;67762.03;;;8.52;69.59
3844;BME280;1937;51.444;6.484;2024-02-23T09:32:27;67740.06;;;8.42;70.15
3844;BME280;1937;51.444;6.484;2024-02-23T09:34:53;67727.03;;;8.55;68.28
3844;BME280;1937;51.444;6.484;2024-02-23T09:37:24;67692.91;;;8.28;68.84
3844;BME280;1937;51.444;6.484;2024-02-23T09:39:50;67656.72;;;8.19;69.83
3844;BME280;1937;51.444;6.484;2024-02-23T09:42:19;67668.31;;;8.25;69.49
3844;BME280;1937;51.444;6.484;2024-02-23T09:44:57;67738.97;;;8.63;69.08
3844;BME280;1937;51.444;6.484;2024-02-23T09:47:27;67694.59;;;8.36;69.69
3844;BME280;1937;51.444;6.484;2024-02-23T09:49:54;67744.72;;;8.75;68.15
3844;BME280;1937;51.444;6.484;2024-02-23T09:52:24;67822.88;;;9.05;67.68
3844;BME280;1937;51.444;6.484;2024-02-23T09:54:52;67781.19;;;9.04;67.74
3844;BME280;1937;51.444;6.484;2024-02-23T09:57:19;67754.22;;;8.99;67.34
3844;BME280;1937;51.444;6.484;2024-02-23T09:59:48;67698.50;;;8.64;67.78
3844;BME280;1937;51.444;6.484;2024-02-23T10:02:16;67755.50;;;8.53;68.19
3844;BME280;1937;51.444;6.484;2024-02-23T10:04:44;67691.19;;;8.09;68.04
3844;BME280;1937;51.444;6.484;2024-02-23T10:07:14;67626.03;;;8.30;68.40
3844;BME280;1937;51.444;6.484;2024-02-23T10:09:41;67671.47;;;7.96;69.27
3844;BME280;1937;51.444;6.484;2024-02-23T10:12:08;67669.22;;;8.28;69.27
3844;BME280;1937;51.444;6.484;2024-02-23T10:14:35;67613.59;;;8.15;70.29
3844;BME280;1937;51.444;6.484;2024-02-23T10:17:02;67622.09;;;8.13;69.65
3844;BME280;1937;51.444;6.484;2024-02-23T10:19:30;67667.63;;;8.31;69.84
3844;BME280;1937;51.444;6.484;2024-02-23T10:21:57;67603.78;;;8.00;71.00
3844;BME280;1937;51.444;6.484;2024-02-23T10:24:23;67630.38;;;8.14;69.99
3844;BME280;1937;51.444;6.484;2024-02-23T10:26:51;67614.06;;;8.11;69.73
3844;BME280;1937;51.444;6.484;2024-02-23T10:29:17;67570.56;;;7.93;69.76
3844;BME280;1937;51.444;6.484;2024-02-23T10:31:46;67565.78;;;7.96;70.55
3844;BME280;1937;51.444;6.484;2024-02-23T10:34:17;67606.56;;;7.98;69.91
3844;BME280;1937;51.444;6.484;2024-02-23T10:36:46;67540.25;;;7.78;69.28
3844;BME280;1937;51.444;6.484;2024-02-23T10:39:16;67566.53;;;8.01;69.53
3844;BME280;1937;51.444;6.484;2024-02-23T10:41:47;67601.50;;;8.20;69.13
3844;BME280;1937;51.444;6.484;2024-02-23T10:44:18;67650.88;;;8.43;68.01
3844;BME280;1937;51.444;6.484;2024-02-23T10:46:45;67601.75;;;8.29;68.43
3844;BME280;1937;51.444;6.484;2024-02-23T10:49:14;67571.41;;;8.03;67.95
3844;BME280;1937;51.444;6.484;2024-02-23T10:51:43;67615.84;;;8.23;68.42
3844;BME280;1937;51.444;6.484;2024-02-23T10:54:14;67647.28;;;8.46;68.84
3844;BME280;1937;51.444;6.484;2024-02-23T10:56:46;67750.13;;;8.55;68.16
3844;BME280;1937;51.444;6.484;2024-02-23T10:59:13;67638.41;;;8.56;67.41
3844;BME280;1937;51.444;6.484;2024-02-23T11:01:41;67659.66;;;8.61;68.35
3844;BME280;1937;51.444;6.484;2024-02-23T11:04:09;67672.59;;;8.66;68.08
3844;BME280;1937;51.444;6.484;2024-02-23T11:06:36;67616.97;;;8.42;67.50
3844;BME280;1937;51.444;6.484;2024-02-23T11:09:06;67666.53;;;8.63;67.36
3844;BME280;1937;51.444;6.484;2024-02-23T11:11:36;67637.22;;;8.44;67.32
3844;BME280;1937;51.444;6.484;2024-02-23T11:14:07;67624.78;;;8.58;68.40
3844;BME280;1937;51.444;6.484;2024-02-23T11:16:38;67722.94;;;8.41;68.56
3844;BME280;1937;51.444;6.484;2024-02-23T11:19:07;67614.28;;;8.09;68.59
3844;BME280;1937;51.444;6.484;2024-02-23T11:21:37;67625.47;;;8.41;68.50
3844;BME280;1937;51.444;6.484;2024-02-23T11:24:05;67627.22;;;8.42;68.32
3844;BME280;1937;51.444;6.484;2024-02-23T11:26:32;67668.78;;;8.32;69.42
3844;BME280;1937;51.444;6.484;2024-02-23T11:29:10;67649.84;;;8.57;69.65
3844;BME280;1937;51.444;6.484;2024-02-23T11:31:44;67633.28;;;8.45;69.85
3844;BME280;1937;51.444;6.484;2024-02-23T11:34:12;67673.53;;;8.58;69.16
3844;BME280;1937;51.444;6.484;2024-02-23T11:36:39;67628.94;;;8.44;69.85
3844;BME280;1937;51.444;6.484;2024-02-23T11:39:06;67658.69;;;8.47;70.55
3844;BME280;1937;51.444;6.484;2024-02-23T11:41:33;67685.09;;;8.63;69.97
3844;BME280;1937;51.444;6.484;2024-02-23T11:44:01;67659.03;;;8.50;69.93
3844;BME280;1937;51.444;6.484;2024-02-23T11:46:28;67639.78;;;8.44;71.02
3844;BME280;1937;51.444;6.484;2024-02-23T11:48:55;67572.97;;;8.29;70.45
3844;BME280;1937;51.444;6.484;2024-02-23T11:51:23;67641.84;;;8.26;71.14
3844;BME280;1937;51.444;6.484;2024-02-23T11:53:52;67646.09;;;8.45;70.95
3844;BME280;1937;51.444;6.484;2024-02-23T11:56:22;67691.25;;;8.60;70.91
3844;BME280;1937;51.444;6.484;2024-02-23T11:58:49;67675.75;;;8.67;71.07
3844;BME280;1937;51.444;6.484;2024-02-23T12:01:17;67659.63;;;8.50;73.19
3844;BME280;1937;51.444;6.484;2024-02-23T12:03:44;67666.38;;;8.36;74.12
3844;BME280;1937;51.444;6.484;2024-02-23T12:06:11;67741.00;;;8.45;74.64
3844;BME280;1937;51.444;6.484;2024-02-23T12:08:38;67756.34;;;8.63;74.42
3844;BME280;1937;51.444;6.484;2024-02-23T12:11:05;67716.28;;;8.48;72.93
3844;BME280;1937;51.444;6.484;2024-02-23T12:13:33;67735.22;;;8.62;73.14
3844;BME280;1937;51.444;6.484;2024-02-23T12:16:01;67783.66;;;8.71;72.26
3844;BME280;1937;51.444;6.484;2024-02-23T12:18:32;67799.66;;;8.72;73.56
3844;BME280;1937;51.444;6.484;2024-02-23T12:21:00;67773.06;;;8.80;71.93
3844;BME280;1937;51.444;6.484;2024-02-23T12:23:40;67734.78;;;8.78;71.50
3844;BME280;1937;51.444;6.484;2024-02-23T12:26:07;67768.09;;;8.95;70.91
3844;BME280;1937;51.444;6.484;2024-02-23T12:28:34;67673.66;;;8.62;71.13
3844;BME280;1937;51.444;6.484;2024-02-23T12:31:01;67707.63;;;8.74;70.14
3844;BME280;1937;51.444;6.484;2024-02-23T12:33:31;67758.13;;;8.76;70.43
3844;BME280;1937;51.444;6.484;2024-02-23T12:36:00;67793.88;;;8.89;70.53
3844;BME280;1937;51.444;6.484;2024-02-23T12:38:27;67727.34;;;8.87;70.74
3844;BME280;1937;51.444;6.484;2024-02-23T12:40:54;67838.91;;;8.88;71.84
3844;BME280;1937;51.444;6.484;2024-02-23T12:43:21;67770.78;;;8.89;70.99
3844;BME280;1937;51.444;6.484;2024-02-23T12:45:49;67709.69;;;8.67;72.26
3844;BME280;1937;51.444;6.484;2024-02-23T12:48:16;67761.31;;;8.87;71.61
3844;BME280;1937;51.444;6.484;2024-02-23T12:50:45;67712.75;;;8.74;71.15
3844;BME280;1937;51.444;6.484;2024-02-23T12:53:30;67762.59;;;8.93;70.14
3844;BME280;1937;51.444;6.484;2024-02-23T12:55:57;67707.50;;;8.81;70.22
3844;BME280;1937;51.444;6.484;2024-02-23T12:58:24;67860.03;;;8.88;69.73
3844;BME280;1937;51.444;6.484;2024-02-23T13:00:54;67696.56;;;8.87;69.14
3844;BME280;1937;51.444;6.484;2024-02-23T13:03:23;67656.28;;;8.63;69.52
3844;BME280;1937;51.444;6.484;2024-02-23T13:05:52;67707.66;;;8.96;68.92
3844;BME280;1937;51.444;6.484;2024-02-23T13:08:19;67741.41;;;9.10;68.91
3844;BME280;1937;51.444;6.484;2024-02-23T13:10:45;67754.13;;;9.17;69.18
3844;BME280;1937;51.444;6.484;2024-02-23T13:13:13;67768.50;;;9.20;69.16
3844;BME280;1937;51.444;6.484;2024-02-23T13:15:40;67734.50;;;8.97;68.50
3844;BME280;1937;51.444;6.484;2024-02-23T13:18:07;67692.34;;;8.90;69.32
3844;BME280;1937;51.444;6.484;2024-02-23T13:20:35;67668.31;;;8.76;68.78
3844;BME280;1937;51.444;6.484;2024-02-23T13:23:04;67773.72;;;9.02;68.99
3844;BME280;1937;51.444;6.484;2024-02-23T13:25:33;67776.13;;;8.87;69.17
3844;BME280;1937;51.444;6.484;2024-02-23T13:28:06;67765.56;;;9.07;69.94
3844;BME280;1937;51.444;6.484;2024-02-23T13:30:48;67725.75;;;9.01;69.16
3844;BME280;1937;51.444;6.484;2024-02-23T13:33:16;67699.81;;;8.92;70.34